CU-0015 weather

CLOSED McCalla Field
Guantanamo Bay Naval Station, Guantánamo, Cuba

Public forecast

Using degrees Celsius for public forecast. Weather courtesy of forecast.io.

METAR (pilot weather report)

Closest report is Leeward Point Field, 2.4 nm (4.5 km) W. Retrieved 2019/03/25 12:56 UTC (29 minutes ago):

MUGM 251256Z 36006KT 9999 FEW030 FEW120 24/22 A3002 RMK SLP167 T02440222

TAF (pilot weather forecast)

Forecast is more than 12 hours old.

Closest forecast is Leeward Point Field, 2.4 nm (4.5 km) W. Retrieved 2016/08/22 23:15 UTC (3 years ago):

TAF TAF COR MUGM 222300Z 2223/2323 09007KT 9999 FEW030 SCT120 QNH2994INS BECMG 2301/2303 36006KT 9999 FEW030 SCT280 QNH2995INS BECMG 2315/2317 13014KT 9999 FEW030 SCT280 QNH2999INS FM232100 09011KT 9999 FEW035 SCT120 BKN280 QNH2992INS TN26/2311Z TX35/2318Z COR 2309 FN20026